createdAt,value
2022-07-29T00:01:19.455Z,67.30
2022-07-29T00:04:22.285Z,67.70
2022-07-29T00:07:24.396Z,67.60
2022-07-29T00:10:26.339Z,67.90
2022-07-29T00:13:32.071Z,68.40
2022-07-29T00:16:34.916Z,68.10
2022-07-29T00:19:36.863Z,69.90
2022-07-29T00:22:39.866Z,69.30
2022-07-29T00:25:41.896Z,71.50
2022-07-29T00:28:43.850Z,73.20
2022-07-29T00:31:45.881Z,73.80
2022-07-29T00:35:06.443Z,73.70
2022-07-29T00:38:08.393Z,73.60
2022-07-29T00:41:10.360Z,72.60
2022-07-29T00:44:12.483Z,75.60
2022-07-29T00:47:14.700Z,77.40
2022-07-29T00:50:16.682Z,76.90
2022-07-29T00:53:18.657Z,75.00
2022-07-29T00:56:20.682Z,74.70
2022-07-29T00:59:22.621Z,77.60
2022-07-29T01:02:24.689Z,79.30
2022-07-29T01:05:50.492Z,80.90
2022-07-29T01:08:50.510Z,85.00
2022-07-29T01:11:52.529Z,83.50
2022-07-29T01:14:55.252Z,84.80
2022-07-29T01:18:12.368Z,83.50
2022-07-29T01:21:42.375Z,89.50
2022-07-29T01:25:08.477Z,90.20
2022-07-29T01:28:49.385Z,91.40
2022-07-29T01:32:00.815Z,96.40
2022-07-29T01:35:10.197Z,91.50
2022-07-29T01:38:21.476Z,92.10
2022-07-29T01:41:23.402Z,90.60
2022-07-29T01:44:35.748Z,90.10
2022-07-29T01:47:47.764Z,91.60
2022-07-29T01:50:51.853Z,93.30
2022-07-29T01:53:59.257Z,92.80
2022-07-29T01:57:01.175Z,93.90
2022-07-29T02:00:03.282Z,94.00
2022-07-29T02:03:16.656Z,94.50
2022-07-29T02:06:20.913Z,95.70
2022-07-29T02:09:22.866Z,96.00
2022-07-29T02:12:24.875Z,95.20
2022-07-29T02:15:27.886Z,96.30
2022-07-29T02:18:29.891Z,96.30
2022-07-29T02:21:31.901Z,95.70
2022-07-29T02:24:33.892Z,96.30
2022-07-29T02:27:36.080Z,96.50
2022-07-29T02:30:40.221Z,99.00
2022-07-29T02:33:42.274Z,99.00
2022-07-29T02:36:44.449Z,98.60
2022-07-29T02:39:51.483Z,99.20
2022-07-29T02:42:53.468Z,98.70
2022-07-29T02:45:55.381Z,98.90
2022-07-29T02:50:09.438Z,99.90
2022-07-29T02:53:14.884Z,99.90
2022-07-29T02:56:17.700Z,99.90
2022-07-29T02:59:19.649Z,99.90
2022-07-29T03:02:21.744Z,98.90
2022-07-29T03:05:23.741Z,99.90
2022-07-29T03:08:25.687Z,99.90
2022-07-29T03:11:42.461Z,99.90
2022-07-29T03:14:49.837Z,99.90
2022-07-29T03:17:52.284Z,99.60
2022-07-29T03:20:54.213Z,99.90
2022-07-29T03:23:56.181Z,99.90
2022-07-29T03:26:58.984Z,99.90
2022-07-29T03:30:00.915Z,99.90
2022-07-29T03:33:02.953Z,99.90
2022-07-29T03:36:15.389Z,99.90
2022-07-29T03:39:22.778Z,99.90
2022-07-29T03:42:34.083Z,99.90
2022-07-29T03:45:36.339Z,99.60
2022-07-29T03:48:40.239Z,98.80
2022-07-29T03:51:42.188Z,99.90
2022-07-29T03:54:44.166Z,99.90
2022-07-29T03:57:46.269Z,99.90
2022-07-29T04:00:48.192Z,99.90
2022-07-29T04:03:52.187Z,99.90
2022-07-29T04:06:54.179Z,99.90
2022-07-29T04:09:56.137Z,99.90
2022-07-29T04:12:58.091Z,99.90
2022-07-29T04:16:00.226Z,99.90
2022-07-29T04:19:02.231Z,99.90
2022-07-29T04:22:04.223Z,99.90
2022-07-29T04:25:06.568Z,99.90
2022-07-29T04:28:08.714Z,99.90
2022-07-29T04:31:11.208Z,99.90
2022-07-29T04:34:13.730Z,99.90
2022-07-29T04:37:15.992Z,99.90
2022-07-29T04:40:18.107Z,99.90
2022-07-29T04:43:22.443Z,99.90
2022-07-29T04:46:25.486Z,99.90
2022-07-29T04:49:27.580Z,99.90
2022-07-29T04:52:29.585Z,99.90
2022-07-29T04:55:31.756Z,99.90
2022-07-29T04:58:36.149Z,99.90
2022-07-29T05:01:38.138Z,99.90
2022-07-29T05:04:40.128Z,99.90
2022-07-29T05:07:42.330Z,99.90
2022-07-29T05:10:44.380Z,99.90
2022-07-29T05:13:46.956Z,99.90
2022-07-29T05:16:52.040Z,99.90
2022-07-29T05:19:54.248Z,99.90
2022-07-29T05:22:59.685Z,99.90
2022-07-29T05:26:01.650Z,98.90
2022-07-29T05:29:03.777Z,98.60
2022-07-29T05:32:06.059Z,99.90
2022-07-29T05:35:08.432Z,99.90
2022-07-29T05:38:10.293Z,99.90
2022-07-29T05:41:12.683Z,99.90
2022-07-29T05:44:15.157Z,98.90
2022-07-29T05:47:17.526Z,97.80
2022-07-29T05:50:19.533Z,97.00
2022-07-29T05:53:21.510Z,95.30
2022-07-29T05:56:24.386Z,93.90
2022-07-29T05:59:30.299Z,92.80
2022-07-29T06:02:32.656Z,91.10
2022-07-29T06:05:34.594Z,91.30
2022-07-29T06:08:37.341Z,91.50
2022-07-29T06:11:39.288Z,89.20
2022-07-29T06:14:41.249Z,88.50
2022-07-29T06:17:59.870Z,85.50
2022-07-29T06:21:02.947Z,85.30
2022-07-29T06:24:05.241Z,87.70
2022-07-29T06:27:07.167Z,83.40
2022-07-29T06:30:09.459Z,83.30
2022-07-29T06:33:16.815Z,84.10
2022-07-29T06:36:18.721Z,82.50
2022-07-29T06:39:21.375Z,80.00
2022-07-29T06:42:23.389Z,77.60
2022-07-29T06:45:25.347Z,76.50
2022-07-29T06:48:30.637Z,73.70
2022-07-29T06:51:32.485Z,69.60
2022-07-29T06:54:34.435Z,66.00
2022-07-29T06:57:36.350Z,66.10
2022-07-29T07:00:38.569Z,68.30
2022-07-29T07:03:40.610Z,63.70
2022-07-29T07:06:42.572Z,54.70
2022-07-29T07:09:44.565Z,46.70
2022-07-29T07:12:46.549Z,51.00
2022-07-29T07:15:49.487Z,45.40
2022-07-29T07:18:51.417Z,44.30
2022-07-29T07:21:56.519Z,40.40
2022-07-29T07:24:58.422Z,37.40
2022-07-29T07:28:00.276Z,45.40
2022-07-29T07:31:02.269Z,39.60
2022-07-29T07:34:04.099Z,40.00
2022-07-29T07:37:06.513Z,32.60
2022-07-29T07:40:10.230Z,31.60
2022-07-29T07:43:12.169Z,34.00
2022-07-29T07:46:14.304Z,30.80
2022-07-29T07:49:16.349Z,27.80
2022-07-29T07:52:18.738Z,26.10
2022-07-29T07:55:20.807Z,25.20
2022-07-29T07:58:22.812Z,17.90
2022-07-29T08:01:24.846Z,17.00
2022-07-29T08:04:28.695Z,16.90
2022-07-29T08:07:30.989Z,15.10
2022-07-29T08:10:51.411Z,14.00
2022-07-29T08:13:53.348Z,11.40
2022-07-29T08:16:55.529Z,10.40
2022-07-29T08:19:57.613Z,9.90
2022-07-29T08:22:59.579Z,9.20
2022-07-29T08:26:01.978Z,7.40
2022-07-29T08:29:03.919Z,4.60
2022-07-29T08:32:06.114Z,2.10
2022-07-29T08:35:08.668Z,4.70
2022-07-29T08:38:10.958Z,5.00
2022-07-29T08:41:13.042Z,2.50
2022-07-29T08:44:17.358Z,3.40
2022-07-29T08:47:27.517Z,1.00
2022-07-29T08:50:29.474Z,2.20
2022-07-29T08:53:31.657Z,1.00
2022-07-29T08:56:33.688Z,1.00
2022-07-29T08:59:35.961Z,1.00
2022-07-29T09:02:41.343Z,1.00
2022-07-29T09:05:47.748Z,1.00
2022-07-29T09:08:50.861Z,1.00
2022-07-29T09:11:54.555Z,1.70
2022-07-29T09:14:56.665Z,1.00
2022-07-29T09:17:59.525Z,1.00
2022-07-29T09:21:30.780Z,1.00
2022-07-29T09:24:42.351Z,1.00
2022-07-29T09:27:44.436Z,1.00
2022-07-29T09:30:53.267Z,1.00
2022-07-29T09:33:55.584Z,1.00
2022-07-29T09:36:58.154Z,1.00
2022-07-29T09:40:00.517Z,1.00
2022-07-29T09:43:13.502Z,1.00
2022-07-29T09:46:15.913Z,1.00
2022-07-29T09:49:18.033Z,1.00
2022-07-29T09:52:20.139Z,1.00
2022-07-29T09:55:22.103Z,1.00
2022-07-29T09:58:24.051Z,1.00
2022-07-29T10:01:29.851Z,1.00
2022-07-29T10:04:44.098Z,1.00
2022-07-29T10:07:50.502Z,1.00
2022-07-29T10:11:18.525Z,1.00
2022-07-29T10:14:20.471Z,1.00
2022-07-29T10:17:22.487Z,1.00
2022-07-29T10:20:24.520Z,1.00
2022-07-29T10:23:26.674Z,1.00
2022-07-29T10:26:29.364Z,1.00
2022-07-29T10:29:37.407Z,1.00
2022-07-29T10:32:45.417Z,1.00
2022-07-29T10:36:05.771Z,1.00
2022-07-29T10:39:25.837Z,1.00
2022-07-29T10:42:43.920Z,1.00
2022-07-29T10:45:48.146Z,1.00
2022-07-29T10:52:54.570Z,1.00
2022-07-29T10:55:56.533Z,1.00
2022-07-29T10:59:36.244Z,1.00
2022-07-29T11:02:46.463Z,1.00
2022-07-29T11:05:56.219Z,1.00
2022-07-29T11:09:25.842Z,1.00
2022-07-29T11:12:40.351Z,1.00
2022-07-29T11:16:08.732Z,1.00
2022-07-29T11:19:13.767Z,1.00
2022-07-29T11:22:48.188Z,1.00
2022-07-29T11:26:12.753Z,1.00
2022-07-29T11:29:21.991Z,1.00
2022-07-29T11:32:29.258Z,1.00
2022-07-29T11:35:37.583Z,1.00
2022-07-29T11:38:42.065Z,1.00
2022-07-29T11:41:44.030Z,1.00
2022-07-29T11:45:40.995Z,1.00
2022-07-29T11:48:32.345Z,1.00
2022-07-29T11:51:34.455Z,1.00
2022-07-29T11:54:57.043Z,1.00
2022-07-29T11:58:03.998Z,1.00
2022-07-29T12:01:07.391Z,1.00
2022-07-29T12:04:09.564Z,1.00
2022-07-29T12:07:15.634Z,1.00
2022-07-29T12:10:19.723Z,1.00
2022-07-29T12:13:37.086Z,1.00
2022-07-29T12:16:39.844Z,1.00
2022-07-29T12:19:46.280Z,1.00
2022-07-29T12:22:50.338Z,1.00
2022-07-29T12:25:52.295Z,1.00
2022-07-29T12:28:56.061Z,1.00
2022-07-29T12:31:59.778Z,1.00
2022-07-29T12:35:08.781Z,1.00
2022-07-29T12:38:14.255Z,1.00
2022-07-29T12:41:16.648Z,1.00
2022-07-29T12:44:18.602Z,1.00
2022-07-29T12:47:20.920Z,1.00
2022-07-29T12:50:26.283Z,1.00
2022-07-29T12:53:29.151Z,1.00
2022-07-29T12:56:42.655Z,1.00
2022-07-29T12:59:45.434Z,1.00
2022-07-29T13:02:55.026Z,1.00
2022-07-29T13:05:57.108Z,1.00
2022-07-29T13:09:08.300Z,1.00
2022-07-29T13:12:11.211Z,1.00
2022-07-29T13:15:15.172Z,1.00
2022-07-29T13:18:38.644Z,1.00
2022-07-29T13:21:40.765Z,1.00
2022-07-29T13:24:49.462Z,1.00
2022-07-29T13:27:51.485Z,1.00
2022-07-29T13:30:55.369Z,1.00
2022-07-29T13:33:57.534Z,1.00
2022-07-29T13:36:59.498Z,1.00
2022-07-29T13:40:03.838Z,1.00
2022-07-29T13:43:05.877Z,1.00
2022-07-29T13:46:08.001Z,1.00
2022-07-29T13:49:10.162Z,1.00
2022-07-29T13:52:12.152Z,1.00
2022-07-29T13:55:14.089Z,1.00
2022-07-29T13:58:16.150Z,1.00
2022-07-29T14:01:18.174Z,1.00
2022-07-29T14:04:20.262Z,1.00
2022-07-29T14:07:23.243Z,1.00
2022-07-29T14:10:25.247Z,1.00
2022-07-29T14:13:27.190Z,1.00
2022-07-29T14:16:29.207Z,1.00
2022-07-29T14:19:33.083Z,1.00
2022-07-29T14:22:40.196Z,1.00
2022-07-29T14:25:44.643Z,1.00
2022-07-29T14:28:47.133Z,1.00
2022-07-29T14:31:49.162Z,1.00
2022-07-29T14:34:51.159Z,1.00
2022-07-29T14:37:53.104Z,1.00
2022-07-29T14:40:55.047Z,1.00
2022-07-29T14:43:56.983Z,1.00
2022-07-29T14:47:08.090Z,1.00
2022-07-29T14:50:10.568Z,1.00
2022-07-29T14:53:14.153Z,1.00
2022-07-29T14:56:36.028Z,1.00
2022-07-29T14:59:38.185Z,1.00
2022-07-29T15:03:00.473Z,1.00
2022-07-29T15:06:02.700Z,1.00
2022-07-29T15:09:04.683Z,1.00
2022-07-29T15:12:07.375Z,1.00
2022-07-29T15:15:09.864Z,1.00
2022-07-29T15:18:11.845Z,1.00
2022-07-29T15:21:14.705Z,1.00
2022-07-29T15:24:18.314Z,1.00
2022-07-29T15:27:20.664Z,1.00
2022-07-29T15:30:30.935Z,1.00
2022-07-29T15:33:35.665Z,1.00
2022-07-29T15:36:53.785Z,1.00
2022-07-29T15:39:59.967Z,1.00
2022-07-29T15:43:06.619Z,1.00
2022-07-29T15:46:27.365Z,1.00
2022-07-29T15:49:48.337Z,1.00
2022-07-29T15:52:51.938Z,1.00
2022-07-29T15:55:53.844Z,1.00
2022-07-29T15:58:55.807Z,1.00
2022-07-29T16:01:57.790Z,1.00
2022-07-29T16:04:59.705Z,1.00
2022-07-29T16:08:04.191Z,1.00
2022-07-29T16:11:06.236Z,1.00
2022-07-29T16:14:09.196Z,1.00
2022-07-29T16:17:14.373Z,1.00
2022-07-29T16:20:17.209Z,1.00
2022-07-29T16:23:19.105Z,1.00
2022-07-29T16:26:21.082Z,1.00
2022-07-29T16:29:23.051Z,1.00
2022-07-29T16:32:25.035Z,1.00
2022-07-29T16:35:39.296Z,1.00
2022-07-29T16:38:47.075Z,1.00
2022-07-29T16:41:49.437Z,1.00
2022-07-29T16:44:51.411Z,1.00
2022-07-29T16:48:00.025Z,1.00
2022-07-29T16:51:02.508Z,1.00
2022-07-29T16:54:04.526Z,1.00
2022-07-29T16:57:06.468Z,1.00
2022-07-29T17:00:09.023Z,1.00
2022-07-29T17:03:11.023Z,1.00
2022-07-29T17:06:15.404Z,1.00
2022-07-29T17:09:17.346Z,1.00
2022-07-29T17:12:19.799Z,1.00
2022-07-29T17:15:21.761Z,1.00
2022-07-29T17:18:23.781Z,1.00
2022-07-29T17:21:27.441Z,1.00
2022-07-29T17:24:29.372Z,1.00
2022-07-29T17:27:31.457Z,1.00
2022-07-29T17:30:33.447Z,1.00
2022-07-29T17:33:35.531Z,1.00
2022-07-29T17:36:37.536Z,1.00
2022-07-29T17:39:41.300Z,1.00
2022-07-29T17:42:43.356Z,1.00
2022-07-29T17:45:49.936Z,1.00
2022-07-29T17:48:56.018Z,1.00
2022-07-29T17:52:01.000Z,1.00
2022-07-29T17:55:03.336Z,1.00
2022-07-29T17:58:08.630Z,1.00
2022-07-29T18:01:10.880Z,1.00
2022-07-29T18:04:13.129Z,1.00
2022-07-29T18:07:15.026Z,1.00
2022-07-29T18:10:17.009Z,1.00
2022-07-29T18:13:19.087Z,1.00
2022-07-29T18:16:21.143Z,1.00
2022-07-29T18:19:23.149Z,1.00
2022-07-29T18:22:25.129Z,1.00
2022-07-29T18:25:27.274Z,1.00
2022-07-29T18:28:29.236Z,1.00
2022-07-29T18:31:31.243Z,1.00
2022-07-29T18:34:33.232Z,1.00
2022-07-29T18:38:00.782Z,1.00
2022-07-29T18:40:58.216Z,1.00
2022-07-29T18:44:00.160Z,1.00
2022-07-29T18:47:03.160Z,1.00
2022-07-29T18:50:09.161Z,1.50
2022-07-29T18:53:11.185Z,2.70
2022-07-29T18:56:13.198Z,3.20
2022-07-29T18:59:17.214Z,2.50
2022-07-29T19:02:19.356Z,3.00
2022-07-29T19:05:21.587Z,3.70
2022-07-29T19:08:23.543Z,3.90
2022-07-29T19:11:27.070Z,4.50
2022-07-29T19:14:29.039Z,4.50
2022-07-29T19:17:31.126Z,5.10
2022-07-29T19:20:33.235Z,5.90
2022-07-29T19:24:06.059Z,6.00
2022-07-29T19:26:57.418Z,6.40
2022-07-29T19:29:59.708Z,6.60
2022-07-29T19:33:01.631Z,7.20
2022-07-29T19:36:04.066Z,8.50
2022-07-29T19:39:06.073Z,8.60
2022-07-29T19:42:08.492Z,9.40
2022-07-29T19:45:11.265Z,9.60
2022-07-29T19:48:13.175Z,11.20
2022-07-29T19:51:15.092Z,11.50
2022-07-29T19:54:18.306Z,16.00
2022-07-29T19:57:20.302Z,11.20
2022-07-29T20:00:23.825Z,12.00
2022-07-29T20:03:26.054Z,19.00
2022-07-29T20:06:28.080Z,13.20
2022-07-29T20:09:30.390Z,19.10
2022-07-29T20:12:32.401Z,14.10
2022-07-29T20:15:34.387Z,14.50
2022-07-29T20:18:36.357Z,22.00
2022-07-29T20:21:38.324Z,17.00
2022-07-29T20:24:40.290Z,17.90
2022-07-29T20:27:43.951Z,24.50
2022-07-29T20:30:45.805Z,19.40
2022-07-29T20:33:49.595Z,26.20
2022-07-29T20:36:51.555Z,18.90
2022-07-29T20:39:53.545Z,22.50
2022-07-29T20:42:55.761Z,21.10
2022-07-29T20:45:57.673Z,23.10
2022-07-29T20:48:59.806Z,29.30
2022-07-29T20:52:01.917Z,23.20
2022-07-29T20:55:04.132Z,32.10
2022-07-29T20:58:07.556Z,25.60
2022-07-29T21:01:09.768Z,26.40
2022-07-29T21:04:11.762Z,26.60
2022-07-29T21:07:13.748Z,27.70
2022-07-29T21:10:18.253Z,28.50
2022-07-29T21:13:20.701Z,37.80
2022-07-29T21:16:25.632Z,27.50
2022-07-29T21:19:27.564Z,29.10
2022-07-29T21:22:29.671Z,29.40
2022-07-29T21:25:31.580Z,30.90
2022-07-29T21:28:42.310Z,41.90
2022-07-29T21:31:44.514Z,34.30
2022-07-29T21:34:46.359Z,33.00
2022-07-29T21:37:48.321Z,42.50
2022-07-29T21:40:50.902Z,32.40
2022-07-29T21:43:54.688Z,32.60
2022-07-29T21:47:00.433Z,34.40
2022-07-29T21:50:02.680Z,36.50
2022-07-29T21:53:04.718Z,35.80
2022-07-29T21:56:07.709Z,35.90
2022-07-29T21:59:16.507Z,32.50
2022-07-29T22:02:18.632Z,35.40
2022-07-29T22:05:20.750Z,38.50
2022-07-29T22:08:22.670Z,34.10
2022-07-29T22:11:24.564Z,35.90
2022-07-29T22:14:26.564Z,35.30
2022-07-29T22:17:28.492Z,35.40
2022-07-29T22:20:30.540Z,38.30
2022-07-29T22:23:32.519Z,35.50
2022-07-29T22:26:34.456Z,39.10
2022-07-29T22:29:36.600Z,38.20
2022-07-29T22:32:38.505Z,39.00
2022-07-29T22:35:40.469Z,46.20
2022-07-29T22:38:42.432Z,39.70
2022-07-29T22:41:44.390Z,38.70
2022-07-29T22:44:46.356Z,41.60
2022-07-29T22:47:48.853Z,40.40
2022-07-29T22:50:50.806Z,40.90
2022-07-29T22:53:52.857Z,40.30
2022-07-29T22:56:54.820Z,40.60
2022-07-29T22:59:56.797Z,41.00
2022-07-29T23:02:58.748Z,39.70
2022-07-29T23:06:00.823Z,39.50
2022-07-29T23:09:02.900Z,41.30
2022-07-29T23:12:05.029Z,43.20
2022-07-29T23:15:07.898Z,42.20
2022-07-29T23:18:09.949Z,42.10
2022-07-29T23:21:11.905Z,44.20
2022-07-29T23:24:14.253Z,46.60
2022-07-29T23:27:16.224Z,43.40
2022-07-29T23:30:18.191Z,44.10
2022-07-29T23:33:20.170Z,43.60
2022-07-29T23:36:22.157Z,43.50
2022-07-29T23:39:24.149Z,43.30
2022-07-29T23:42:26.097Z,43.30
2022-07-29T23:45:42.874Z,43.30
2022-07-29T23:48:47.116Z,46.10
2022-07-29T23:51:49.055Z,43.20
2022-07-29T23:54:50.967Z,43.20
2022-07-29T23:57:52.882Z,43.20
